createdAt,value
2018-04-16T00:02:32.803Z,41.00
2018-04-16T00:05:35.268Z,42.00
2018-04-16T00:08:37.758Z,42.47
2018-04-16T00:11:40.193Z,42.47
2018-04-16T00:14:42.688Z,42.87
2018-04-16T00:17:45.117Z,44.17
2018-04-16T00:20:47.592Z,45.53
2018-04-16T00:23:50.025Z,43.13
2018-04-16T00:26:52.540Z,43.60
2018-04-16T00:29:55.126Z,46.00
2018-04-16T00:33:03.202Z,47.33
2018-04-16T00:36:11.257Z,45.13
2018-04-16T00:39:19.438Z,43.93
2018-04-16T00:42:27.619Z,48.50
2018-04-16T00:49:22.474Z,46.23
2018-04-16T00:52:30.511Z,46.17
2018-04-16T00:55:38.636Z,46.20
2018-04-16T00:58:46.780Z,44.87
2018-04-16T01:01:54.915Z,43.50
2018-04-16T01:05:03.145Z,44.13
2018-04-16T01:08:11.311Z,41.37
2018-04-16T01:11:19.439Z,45.70
2018-04-16T01:14:27.499Z,45.70
2018-04-16T01:17:35.644Z,44.40
2018-04-16T01:20:43.691Z,42.80
2018-04-16T01:23:51.680Z,42.17
2018-04-16T01:27:11.951Z,40.40
2018-04-16T01:30:19.912Z,39.33
2018-04-16T01:33:43.207Z,40.47
2018-04-16T01:37:01.325Z,43.43
2018-04-16T01:40:23.611Z,42.57
2018-04-16T01:43:31.702Z,39.43
2018-04-16T01:46:39.813Z,41.97
2018-04-16T01:49:47.815Z,39.77
2018-04-16T01:52:55.942Z,42.70
2018-04-16T01:56:04.120Z,41.57
2018-04-16T01:59:12.334Z,42.13
2018-04-16T02:02:20.542Z,42.43
2018-04-16T02:05:28.621Z,41.20
2018-04-16T02:08:36.733Z,40.60
2018-04-16T02:11:44.840Z,41.03
2018-04-16T02:14:52.787Z,42.10
2018-04-16T02:18:00.845Z,42.60
2018-04-16T02:21:09.052Z,45.90
2018-04-16T02:24:17.125Z,45.17
2018-04-16T02:27:25.250Z,44.60
2018-04-16T02:30:33.368Z,42.40
2018-04-16T02:33:41.360Z,43.40
2018-04-16T02:36:49.349Z,42.70
2018-04-16T02:39:57.550Z,41.97
2018-04-16T02:43:05.549Z,40.67
2018-04-16T02:46:13.616Z,43.20
2018-04-16T02:49:21.837Z,43.47
2018-04-16T02:52:29.929Z,39.83
2018-04-16T02:55:37.995Z,39.57
2018-04-16T02:58:46.086Z,37.27
2018-04-16T03:01:54.145Z,37.60
2018-04-16T03:05:02.261Z,38.17
2018-04-16T03:08:10.383Z,40.90
2018-04-16T03:11:18.529Z,42.50
2018-04-16T03:14:26.638Z,36.83
2018-04-16T03:17:34.752Z,38.33
2018-04-16T03:20:52.058Z,36.97
2018-04-16T03:24:00.152Z,39.93
2018-04-16T03:27:08.174Z,41.10
2018-04-16T03:30:16.196Z,41.47
2018-04-16T03:33:24.382Z,42.53
2018-04-16T03:36:32.549Z,40.03
2018-04-16T03:39:40.726Z,43.20
2018-04-16T03:42:48.729Z,42.53
2018-04-16T03:45:56.884Z,42.00
2018-04-16T03:49:05.109Z,43.50
2018-04-16T03:52:13.134Z,45.20
2018-04-16T03:55:36.459Z,46.30
2018-04-16T03:58:38.928Z,46.60
2018-04-16T04:01:41.555Z,45.23
2018-04-16T04:04:43.985Z,39.00
2018-04-16T04:07:46.484Z,38.47
2018-04-16T04:10:48.963Z,40.47
2018-04-16T04:13:51.489Z,37.20
2018-04-16T04:16:54.000Z,35.37
2018-04-16T04:19:56.528Z,35.17
2018-04-16T04:23:10.889Z,35.60
2018-04-16T04:26:25.185Z,37.27
2018-04-16T04:29:39.444Z,38.27
2018-04-16T04:32:41.889Z,39.97
2018-04-16T04:35:44.378Z,39.83
2018-04-16T04:38:46.856Z,39.50
2018-04-16T04:41:49.363Z,41.03
2018-04-16T04:44:51.925Z,41.83
2018-04-16T04:47:54.425Z,41.00
2018-04-16T04:50:56.868Z,39.57
2018-04-16T04:53:59.359Z,38.03
2018-04-16T04:57:01.905Z,38.33
2018-04-16T05:00:04.350Z,37.50
2018-04-16T05:03:06.818Z,38.60
2018-04-16T05:06:09.325Z,37.57
2018-04-16T05:09:11.839Z,35.47
2018-04-16T05:12:14.479Z,36.17
2018-04-16T05:15:16.948Z,36.50
2018-04-16T05:18:19.432Z,34.60
2018-04-16T05:21:21.894Z,35.97
2018-04-16T05:24:24.400Z,35.40
2018-04-16T05:27:26.864Z,33.90
2018-04-16T05:30:29.432Z,29.40
2018-04-16T05:33:31.884Z,31.97
2018-04-16T05:36:34.365Z,31.30
2018-04-16T05:39:36.841Z,31.37
2018-04-16T05:42:39.347Z,30.17
2018-04-16T05:45:41.851Z,28.97
2018-04-16T05:48:44.320Z,28.73
2018-04-16T05:51:46.810Z,28.60
2018-04-16T05:54:49.289Z,29.57
2018-04-16T05:57:51.797Z,29.50
2018-04-16T06:00:54.316Z,27.93
2018-04-16T06:03:56.820Z,28.40
2018-04-16T06:06:59.365Z,29.57
2018-04-16T06:10:01.888Z,28.20
2018-04-16T06:13:04.401Z,27.17
2018-04-16T06:16:06.907Z,26.13
2018-04-16T06:19:09.428Z,25.40
2018-04-16T06:22:11.945Z,26.60
2018-04-16T06:25:14.439Z,27.17
2018-04-16T06:28:16.899Z,28.27
2018-04-16T06:31:19.384Z,26.33
2018-04-16T06:34:21.890Z,28.50
2018-04-16T06:37:24.345Z,26.90
2018-04-16T06:40:26.853Z,26.20
2018-04-16T06:43:29.416Z,25.70
2018-04-16T06:46:31.915Z,25.83
2018-04-16T06:49:34.451Z,25.43
2018-04-16T06:52:37.030Z,24.47
2018-04-16T06:55:39.494Z,25.20
2018-04-16T06:58:42.065Z,26.60
2018-04-16T07:01:44.570Z,27.13
2018-04-16T07:04:47.158Z,25.30
2018-04-16T07:07:49.688Z,25.00
2018-04-16T07:10:52.175Z,25.10
2018-04-16T07:13:54.746Z,26.43
2018-04-16T07:16:57.254Z,25.20
2018-04-16T07:19:59.749Z,26.90
2018-04-16T07:23:02.327Z,24.73
2018-04-16T07:26:04.777Z,24.57
2018-04-16T07:29:07.293Z,23.00
2018-04-16T07:32:09.808Z,24.47
2018-04-16T07:35:12.369Z,25.63
2018-04-16T07:38:14.865Z,24.83
2018-04-16T07:41:17.390Z,27.20
2018-04-16T07:44:19.903Z,25.93
2018-04-16T07:47:22.385Z,26.63
2018-04-16T07:50:24.980Z,22.33
2018-04-16T07:53:27.469Z,23.03
2018-04-16T07:56:30.003Z,20.13
2018-04-16T07:59:32.518Z,20.70
2018-04-16T08:02:34.953Z,21.03
2018-04-16T08:05:37.463Z,21.40
2018-04-16T08:08:39.987Z,18.13
2018-04-16T08:11:42.553Z,19.10
2018-04-16T08:14:45.083Z,20.13
2018-04-16T08:17:47.558Z,19.27
2018-04-16T08:20:50.060Z,19.17
2018-04-16T08:23:52.551Z,21.27
2018-04-16T08:26:55.089Z,21.57
2018-04-16T08:29:57.596Z,22.53
2018-04-16T08:33:00.093Z,20.23
2018-04-16T08:36:02.544Z,20.57
2018-04-16T08:39:05.899Z,21.33
2018-04-16T08:42:08.397Z,21.97
2018-04-16T08:45:11.012Z,20.17
2018-04-16T08:48:13.467Z,21.53
2018-04-16T08:51:15.977Z,20.60
2018-04-16T08:54:18.468Z,20.03
2018-04-16T08:57:20.975Z,18.77
2018-04-16T09:00:23.531Z,20.47
2018-04-16T09:03:26.106Z,18.43
2018-04-16T09:06:28.592Z,18.80
2018-04-16T09:09:31.076Z,17.03
2018-04-16T09:12:33.551Z,14.60
2018-04-16T09:15:36.020Z,15.10
2018-04-16T09:18:38.565Z,16.00
2018-04-16T09:21:41.084Z,16.20
2018-04-16T09:24:43.593Z,15.67
2018-04-16T09:27:46.057Z,17.33
2018-04-16T09:30:48.636Z,18.27
2018-04-16T09:33:51.103Z,16.23
2018-04-16T09:36:53.588Z,14.50
2018-04-16T09:39:56.079Z,16.47
2018-04-16T09:42:58.561Z,14.90
2018-04-16T09:46:01.101Z,12.27
2018-04-16T09:49:03.608Z,11.97
2018-04-16T09:52:06.122Z,15.20
2018-04-16T09:55:08.617Z,13.33
2018-04-16T09:58:11.123Z,15.40
2018-04-16T10:01:19.295Z,15.10
2018-04-16T10:04:21.779Z,16.73
2018-04-16T10:07:24.287Z,18.30
2018-04-16T10:10:26.771Z,17.23
2018-04-16T10:13:32.551Z,20.10
2018-04-16T10:16:35.207Z,19.70
2018-04-16T10:19:37.834Z,17.53
2018-04-16T10:22:40.351Z,15.53
2018-04-16T10:25:42.807Z,14.10
2018-04-16T10:28:45.319Z,13.17
2018-04-16T10:31:47.809Z,12.73
2018-04-16T10:34:50.308Z,9.80
2018-04-16T10:37:52.807Z,9.27
2018-04-16T10:40:55.262Z,8.97
2018-04-16T10:43:57.783Z,9.10
2018-04-16T10:47:00.267Z,10.00
2018-04-16T10:50:02.764Z,17.60
2018-04-16T10:53:05.229Z,16.80
2018-04-16T10:56:07.729Z,16.90
2018-04-16T10:59:10.344Z,16.97
2018-04-16T11:02:12.872Z,14.43
2018-04-16T11:05:15.324Z,15.50
2018-04-16T11:08:17.823Z,14.97
2018-04-16T11:11:20.328Z,15.00
2018-04-16T11:14:22.837Z,14.80
2018-04-16T11:17:25.444Z,14.70
2018-04-16T11:20:27.917Z,13.83
2018-04-16T11:23:30.432Z,14.43
2018-04-16T11:26:32.964Z,13.67
2018-04-16T11:29:35.422Z,12.80
2018-04-16T11:32:37.920Z,12.73
2018-04-16T11:35:40.417Z,12.27
2018-04-16T11:38:43.093Z,12.50
2018-04-16T11:41:45.612Z,11.60
2018-04-16T11:44:48.450Z,11.80
2018-04-16T11:47:50.964Z,13.27
2018-04-16T11:50:53.487Z,12.73
2018-04-16T11:53:56.052Z,13.57
2018-04-16T11:56:58.617Z,12.13
2018-04-16T12:00:01.073Z,12.00
2018-04-16T12:03:04.456Z,11.27
2018-04-16T12:06:06.974Z,11.20
2018-04-16T12:09:09.526Z,13.20
2018-04-16T12:12:12.053Z,17.40
2018-04-16T12:15:14.605Z,18.40
2018-04-16T12:18:17.293Z,19.50
2018-04-16T12:21:19.775Z,18.90
2018-04-16T12:24:22.301Z,18.63
2018-04-16T12:27:24.778Z,18.47
2018-04-16T12:30:27.335Z,19.60
2018-04-16T12:33:29.814Z,19.33
2018-04-16T12:36:32.384Z,19.70
2018-04-16T12:39:34.886Z,19.80
2018-04-16T12:42:37.352Z,18.90
2018-04-16T12:45:39.831Z,18.30
2018-04-16T12:48:42.345Z,18.80
2018-04-16T12:51:44.829Z,18.97
2018-04-16T12:54:47.385Z,17.57
2018-04-16T12:57:49.849Z,17.37
2018-04-16T13:00:52.479Z,15.70
2018-04-16T13:03:54.939Z,14.87
2018-04-16T13:06:57.415Z,15.13
2018-04-16T13:09:59.926Z,16.97
2018-04-16T13:13:02.577Z,17.60
2018-04-16T13:16:05.085Z,18.50
2018-04-16T13:19:07.618Z,18.07
2018-04-16T13:22:10.115Z,17.63
2018-04-16T13:25:12.626Z,14.73
2018-04-16T13:28:15.093Z,11.10
2018-04-16T13:31:17.585Z,10.03
2018-04-16T13:34:20.116Z,10.67
2018-04-16T13:37:22.577Z,9.60
2018-04-16T13:40:25.144Z,9.27
2018-04-16T13:43:27.666Z,7.83
2018-04-16T13:46:30.260Z,9.20
2018-04-16T13:49:32.701Z,8.80
2018-04-16T13:52:35.282Z,10.10
2018-04-16T13:55:37.770Z,9.17
2018-04-16T13:58:40.280Z,9.70
2018-04-16T14:01:42.797Z,9.60
2018-04-16T14:04:45.430Z,12.10
2018-04-16T14:07:47.994Z,16.80
2018-04-16T14:10:50.470Z,18.00
2018-04-16T14:13:52.980Z,17.50
2018-04-16T14:16:55.449Z,17.40
2018-04-16T14:19:57.940Z,16.80
2018-04-16T14:23:00.485Z,17.10
2018-04-16T14:26:03.049Z,15.77
2018-04-16T14:29:05.532Z,16.10
2018-04-16T14:32:08.095Z,12.50
2018-04-16T14:35:10.609Z,15.07
2018-04-16T14:38:13.131Z,13.53
2018-04-16T14:41:15.660Z,14.57
2018-04-16T14:44:18.215Z,12.50
2018-04-16T14:47:20.905Z,12.50
2018-04-16T14:50:32.529Z,12.00
2018-04-16T14:53:35.387Z,10.90
2018-04-16T14:56:37.965Z,10.67
2018-04-16T14:59:40.386Z,9.73
2018-04-16T15:02:42.934Z,9.47
2018-04-16T15:05:45.517Z,10.00
2018-04-16T15:08:47.990Z,9.70
2018-04-16T15:11:50.597Z,10.50
2018-04-16T15:14:53.122Z,10.57
2018-04-16T15:17:55.646Z,9.87
2018-04-16T15:20:58.165Z,9.80
2018-04-16T15:24:00.640Z,9.57
2018-04-16T15:27:04.374Z,8.63
2018-04-16T15:30:06.856Z,9.37
2018-04-16T15:33:09.360Z,9.20
2018-04-16T15:36:11.963Z,9.77
2018-04-16T15:39:14.463Z,9.30
2018-04-16T15:42:16.992Z,8.97
2018-04-16T15:45:20.739Z,8.47
2018-04-16T15:48:23.217Z,8.33
2018-04-16T15:51:25.715Z,7.67
2018-04-16T15:54:28.210Z,7.70
2018-04-16T15:57:30.725Z,8.07
2018-04-16T16:00:33.280Z,8.50
2018-04-16T16:03:35.843Z,7.90
2018-04-16T16:06:38.293Z,8.30
2018-04-16T16:09:40.796Z,7.97
2018-04-16T16:12:43.277Z,7.90
2018-04-16T16:15:45.808Z,8.50
2018-04-16T16:18:48.349Z,7.37
2018-04-16T16:21:50.905Z,8.17
2018-04-16T16:24:53.473Z,8.10
2018-04-16T16:27:55.930Z,7.77
2018-04-16T16:30:58.496Z,8.43
2018-04-16T16:34:01.019Z,7.93
2018-04-16T16:37:03.554Z,7.30
2018-04-16T16:40:06.042Z,8.47
2018-04-16T16:43:08.624Z,7.70
2018-04-16T16:46:11.158Z,8.30
2018-04-16T16:49:13.713Z,8.50
2018-04-16T16:52:17.302Z,8.40
2018-04-16T16:55:19.897Z,8.30
2018-04-16T16:58:22.447Z,8.70
2018-04-16T17:01:25.151Z,9.13
2018-04-16T17:04:27.817Z,8.70
2018-04-16T17:07:30.310Z,9.27
2018-04-16T17:10:32.846Z,9.30
2018-04-16T17:13:35.430Z,10.60
2018-04-16T17:16:37.935Z,10.70
2018-04-16T17:19:40.436Z,10.77
2018-04-16T17:22:43.066Z,11.60
2018-04-16T17:25:45.641Z,12.00
2018-04-16T17:28:48.218Z,11.40
2018-04-16T17:31:50.856Z,11.93
2018-04-16T17:34:53.381Z,11.80
2018-04-16T17:37:55.909Z,12.03
2018-04-16T17:40:58.502Z,11.90
2018-04-16T17:44:01.043Z,11.63
2018-04-16T17:47:03.638Z,12.60
2018-04-16T17:50:06.151Z,12.50
2018-04-16T17:53:08.649Z,12.50
2018-04-16T17:56:11.254Z,12.13
2018-04-16T17:59:13.757Z,11.87
2018-04-16T18:02:16.363Z,12.53
2018-04-16T18:05:18.973Z,12.50
2018-04-16T18:08:21.505Z,13.37
2018-04-16T18:11:24.091Z,13.07
2018-04-16T18:14:26.647Z,12.43
2018-04-16T18:17:29.288Z,13.80
2018-04-16T18:20:31.890Z,14.50
2018-04-16T18:23:34.414Z,13.73
2018-04-16T18:26:36.931Z,14.53
2018-04-16T18:32:48.248Z,14.50
2018-04-16T18:35:50.837Z,16.27
2018-04-16T18:38:53.347Z,14.80
2018-04-16T18:41:55.884Z,14.47
2018-04-16T18:44:58.529Z,15.77
2018-04-16T18:48:01.057Z,16.43
2018-04-16T18:51:03.583Z,15.77
2018-04-16T18:54:06.064Z,16.00
2018-04-16T18:57:08.683Z,15.70
2018-04-16T19:00:11.253Z,16.93
2018-04-16T19:03:13.789Z,16.23
2018-04-16T19:06:16.380Z,15.73
2018-04-16T19:09:18.895Z,15.50
2018-04-16T19:12:21.433Z,14.37
2018-04-16T19:15:23.966Z,14.60
2018-04-16T19:18:26.504Z,14.00
2018-04-16T19:21:34.561Z,13.30
2018-04-16T19:24:37.096Z,12.67
2018-04-16T19:33:13.211Z,10.67
2018-04-16T19:36:15.813Z,11.10
2018-04-16T19:39:18.360Z,10.30
2018-04-16T19:42:26.449Z,10.40
2018-04-16T19:45:29.005Z,9.03
2018-04-16T19:48:36.987Z,9.37
2018-04-16T19:51:39.464Z,10.30
2018-04-16T19:54:41.964Z,8.97
2018-04-16T19:57:50.322Z,10.30
2018-04-16T20:00:52.808Z,8.90
2018-04-16T20:04:00.228Z,9.40
2018-04-16T20:07:02.798Z,8.80
2018-04-16T20:10:05.341Z,9.17
2018-04-16T20:13:07.898Z,10.60
2018-04-16T20:16:10.427Z,11.10
2018-04-16T20:19:13.020Z,11.10
2018-04-16T20:22:15.508Z,11.67
2018-04-16T20:25:18.139Z,11.63
2018-04-16T20:28:20.720Z,11.07
2018-04-16T20:31:23.220Z,10.90
2018-04-16T20:34:25.731Z,11.77
2018-04-16T20:37:28.245Z,11.37
2018-04-16T20:40:30.730Z,11.20
2018-04-16T20:43:33.299Z,12.50
2018-04-16T20:46:35.769Z,12.13
2018-04-16T20:49:38.321Z,12.40
2018-04-16T20:52:40.769Z,13.10
2018-04-16T20:55:43.276Z,13.10
2018-04-16T20:58:45.821Z,13.43
2018-04-16T21:01:48.299Z,13.40
2018-04-16T21:04:50.779Z,13.87
2018-04-16T21:07:53.362Z,15.47
2018-04-16T21:10:55.894Z,15.30
2018-04-16T21:13:58.383Z,17.33
2018-04-16T21:17:00.911Z,18.10
2018-04-16T21:20:03.412Z,19.90
2018-04-16T21:23:05.938Z,19.00
2018-04-16T21:26:08.448Z,17.90
2018-04-16T21:29:10.981Z,19.67
2018-04-16T21:32:13.494Z,20.47
2018-04-16T21:35:16.010Z,20.93
2018-04-16T21:38:18.509Z,20.83
2018-04-16T21:41:21.005Z,19.93
2018-04-16T21:44:23.560Z,21.80
2018-04-16T21:47:26.019Z,22.50
2018-04-16T21:50:28.550Z,22.77
2018-04-16T21:53:31.068Z,23.57
2018-04-16T21:56:33.528Z,24.60
2018-04-16T21:59:36.059Z,23.63
2018-04-16T22:02:38.540Z,22.87
2018-04-16T22:05:41.033Z,22.67
2018-04-16T22:08:43.463Z,26.37
2018-04-16T22:11:45.946Z,27.20
2018-04-16T22:14:48.408Z,24.83
2018-04-16T22:17:51.411Z,25.50
2018-04-16T22:20:53.869Z,24.47
2018-04-16T22:23:56.339Z,25.60
2018-04-16T22:26:58.839Z,24.43
2018-04-16T22:30:01.319Z,25.30
2018-04-16T22:33:03.918Z,23.90
2018-04-16T22:36:06.411Z,25.50
2018-04-16T22:39:08.918Z,26.87
2018-04-16T22:42:11.404Z,26.40
2018-04-16T22:45:13.945Z,27.10
2018-04-16T22:48:16.428Z,27.30
2018-04-16T22:51:18.939Z,25.07
2018-04-16T22:54:21.394Z,27.20
2018-04-16T22:57:23.974Z,25.50
2018-04-16T23:00:26.465Z,26.30
2018-04-16T23:03:28.909Z,26.20
2018-04-16T23:06:31.425Z,27.20
2018-04-16T23:09:33.926Z,26.47
2018-04-16T23:12:36.420Z,25.37
2018-04-16T23:15:38.917Z,26.37
2018-04-16T23:18:41.390Z,26.33
2018-04-16T23:21:43.994Z,26.40
2018-04-16T23:24:46.484Z,26.20
2018-04-16T23:27:48.950Z,26.17
2018-04-16T23:30:51.465Z,27.47
2018-04-16T23:33:53.941Z,25.93
2018-04-16T23:36:56.583Z,25.47
2018-04-16T23:39:59.062Z,24.87
2018-04-16T23:43:01.514Z,25.37
2018-04-16T23:46:04.060Z,25.57
2018-04-16T23:49:06.552Z,25.20
2018-04-16T23:52:09.030Z,26.27
2018-04-16T23:55:11.463Z,24.80
2018-04-16T23:58:13.982Z,26.10
